createdAt,value
2022-08-09T00:01:52.566Z,17.99
2022-08-09T00:04:33.856Z,18.04
2022-08-09T00:07:07.715Z,18.09
2022-08-09T00:09:39.502Z,18.14
2022-08-09T00:12:08.309Z,18.20
2022-08-09T00:14:38.521Z,18.23
2022-08-09T00:17:07.617Z,18.26
2022-08-09T00:19:36.356Z,18.28
2022-08-09T00:22:04.656Z,18.29
2022-08-09T00:24:33.744Z,18.33
2022-08-09T00:27:02.171Z,18.37
2022-08-09T00:30:16.209Z,18.38
2022-08-09T00:32:25.664Z,18.34
2022-08-09T00:34:56.611Z,18.37
2022-08-09T00:37:27.343Z,18.40
2022-08-09T00:40:14.129Z,18.39
2022-08-09T00:44:16.493Z,18.38
2022-08-09T00:45:35.188Z,18.38
2022-08-09T00:48:04.748Z,18.41
2022-08-09T00:50:37.950Z,18.39
2022-08-09T00:53:10.318Z,18.38
2022-08-09T00:56:05.368Z,18.39
2022-08-09T00:58:30.559Z,18.37
2022-08-09T01:01:00.201Z,18.38
2022-08-09T01:03:49.246Z,18.38
2022-08-09T01:06:53.229Z,18.38
2022-08-09T01:09:38.364Z,18.38
2022-08-09T01:12:15.217Z,18.39
2022-08-09T01:15:17.555Z,18.40
2022-08-09T01:17:57.668Z,18.39
2022-08-09T01:20:25.964Z,18.42
2022-08-09T01:24:02.623Z,18.41
2022-08-09T01:26:22.316Z,18.39
2022-08-09T01:28:54.124Z,18.38
2022-08-09T01:32:43.778Z,18.35
2022-08-09T01:34:18.791Z,18.30
2022-08-09T01:36:49.677Z,18.26
2022-08-09T01:39:18.878Z,18.26
2022-08-09T01:41:59.763Z,18.19
2022-08-09T01:44:31.239Z,18.22
2022-08-09T01:47:01.849Z,18.23
2022-08-09T01:49:38.845Z,18.25
2022-08-09T01:52:11.922Z,18.19
2022-08-09T01:54:47.283Z,18.18
2022-08-09T01:57:20.650Z,18.23
2022-08-09T01:59:53.463Z,18.21
2022-08-09T02:02:32.532Z,18.19
2022-08-09T02:05:15.609Z,18.16
2022-08-09T02:08:35.571Z,18.16
2022-08-09T02:10:51.155Z,18.20
2022-08-09T02:13:26.315Z,18.22
2022-08-09T02:16:12.322Z,18.19
2022-08-09T02:18:42.919Z,18.19
2022-08-09T02:21:22.349Z,18.21
2022-08-09T02:23:54.923Z,18.20
2022-08-09T02:26:28.294Z,18.18
2022-08-09T02:29:19.036Z,18.20
2022-08-09T02:31:51.463Z,18.23
2022-08-09T02:34:40.214Z,18.24
2022-08-09T02:37:16.455Z,18.23
2022-08-09T02:39:55.015Z,18.22
2022-08-09T02:42:37.166Z,18.25
2022-08-09T02:45:09.649Z,18.26
2022-08-09T02:47:57.999Z,18.30
2022-08-09T02:50:35.211Z,18.27
2022-08-09T02:53:08.690Z,18.24
2022-08-09T02:55:46.372Z,18.22
2022-08-09T02:58:37.105Z,18.21
2022-08-09T03:01:08.085Z,18.23
2022-08-09T03:04:17.691Z,18.27
2022-08-09T03:06:30.404Z,18.27
2022-08-09T03:09:00.362Z,18.28
2022-08-09T03:12:04.000Z,18.28
2022-08-09T03:14:19.941Z,18.28
2022-08-09T03:16:55.732Z,18.29
2022-08-09T03:19:59.000Z,18.30
2022-08-09T03:22:25.109Z,18.31
2022-08-09T03:25:21.798Z,18.32
2022-08-09T03:27:45.893Z,18.32
2022-08-09T03:30:23.734Z,18.30
2022-08-09T03:33:17.413Z,18.26
2022-08-09T03:36:14.139Z,18.25
2022-08-09T03:38:41.820Z,18.23
2022-08-09T03:41:15.427Z,18.21
2022-08-09T03:44:03.169Z,18.20
2022-08-09T03:46:34.615Z,18.22
2022-08-09T03:49:08.495Z,18.16
2022-08-09T03:51:56.039Z,18.12
2022-08-09T03:54:31.827Z,18.12
2022-08-09T03:57:04.547Z,18.04
2022-08-09T03:59:54.771Z,18.09
2022-08-09T04:02:28.148Z,17.99
2022-08-09T04:05:06.239Z,18.05
2022-08-09T04:07:53.596Z,18.10
2022-08-09T04:10:29.079Z,18.16
2022-08-09T04:13:04.189Z,18.20
2022-08-09T04:15:52.424Z,18.20
2022-08-09T04:18:21.509Z,18.23
2022-08-09T04:20:51.679Z,18.24
2022-08-09T04:23:23.397Z,18.30
2022-08-09T04:25:54.857Z,18.35
2022-08-09T04:28:33.916Z,18.37
2022-08-09T04:31:08.990Z,18.38
2022-08-09T04:33:53.049Z,18.44
2022-08-09T04:36:27.716Z,18.39
2022-08-09T04:38:59.780Z,18.45
2022-08-09T04:41:32.847Z,18.49
2022-08-09T04:44:11.019Z,18.42
2022-08-09T04:46:59.543Z,18.56
2022-08-09T04:49:53.926Z,18.57
2022-08-09T04:52:32.303Z,18.53
2022-08-09T04:55:04.175Z,18.54
2022-08-09T04:57:59.044Z,18.62
2022-08-09T05:00:31.884Z,18.68
2022-08-09T05:03:30.274Z,18.74
2022-08-09T05:06:04.544Z,18.80
2022-08-09T05:08:35.802Z,18.85
2022-08-09T05:11:07.495Z,18.87
2022-08-09T05:13:38.785Z,18.88
2022-08-09T05:16:08.552Z,18.91
2022-08-09T05:18:57.306Z,18.98
2022-08-09T05:21:29.817Z,19.06
2022-08-09T05:24:01.457Z,19.12
2022-08-09T05:26:37.211Z,19.11
2022-08-09T05:29:21.771Z,19.20
2022-08-09T05:31:57.170Z,19.27
2022-08-09T05:34:32.577Z,19.25
2022-08-09T05:37:05.273Z,19.36
2022-08-09T05:39:43.927Z,19.43
2022-08-09T05:42:17.742Z,19.42
2022-08-09T05:44:52.350Z,19.43
2022-08-09T05:47:23.771Z,19.51
2022-08-09T05:50:24.442Z,19.53
2022-08-09T05:52:44.627Z,19.56
2022-08-09T05:55:23.977Z,19.62
2022-08-09T05:57:56.886Z,19.64
2022-08-09T06:00:28.999Z,19.64
2022-08-09T06:02:59.176Z,19.74
2022-08-09T06:05:54.512Z,19.91
2022-08-09T06:08:24.909Z,20.05
2022-08-09T06:10:55.501Z,20.19
2022-08-09T06:13:24.264Z,20.24
2022-08-09T06:15:53.059Z,20.38
2022-08-09T06:18:25.469Z,20.55
2022-08-09T06:20:57.919Z,20.77
2022-08-09T06:23:58.171Z,20.76
2022-08-09T06:26:22.406Z,20.75
2022-08-09T06:29:00.330Z,20.78
2022-08-09T06:31:39.877Z,20.91
2022-08-09T06:34:26.251Z,21.10
2022-08-09T06:36:59.812Z,21.17
2022-08-09T06:39:48.980Z,21.19
2022-08-09T06:42:24.833Z,21.16
2022-08-09T06:45:00.287Z,21.34
2022-08-09T06:47:39.907Z,21.37
2022-08-09T06:50:16.684Z,21.34
2022-08-09T06:52:49.050Z,21.47
2022-08-09T06:55:23.948Z,21.57
2022-08-09T06:58:03.607Z,21.67
2022-08-09T07:00:56.191Z,21.86
2022-08-09T07:03:27.724Z,21.91
2022-08-09T07:06:04.042Z,22.08
2022-08-09T07:08:39.437Z,22.17
2022-08-09T07:11:12.546Z,22.33
2022-08-09T07:13:45.518Z,22.48
2022-08-09T07:16:42.706Z,22.56
2022-08-09T07:19:22.950Z,22.79
2022-08-09T07:21:55.948Z,22.93
2022-08-09T07:24:32.287Z,22.89
2022-08-09T07:27:33.839Z,22.84
2022-08-09T07:30:03.311Z,23.10
2022-08-09T07:32:34.243Z,23.30
2022-08-09T07:35:08.197Z,23.51
2022-08-09T07:37:43.470Z,23.79
2022-08-09T07:40:16.709Z,23.76
2022-08-09T07:42:56.375Z,24.00
2022-08-09T07:45:39.868Z,23.82
2022-08-09T07:48:25.321Z,24.00
2022-08-09T07:51:08.991Z,24.14
2022-08-09T07:54:06.904Z,24.16
2022-08-09T07:56:44.826Z,23.97
2022-08-09T07:59:25.068Z,24.11
2022-08-09T08:02:02.190Z,24.20
2022-08-09T08:04:31.856Z,24.21
2022-08-09T08:07:15.551Z,24.10
2022-08-09T08:10:07.690Z,24.24
2022-08-09T08:12:44.111Z,24.42
2022-08-09T08:15:17.702Z,24.34
2022-08-09T08:17:53.032Z,24.50
2022-08-09T08:20:29.065Z,24.62
2022-08-09T08:23:03.622Z,24.76
2022-08-09T08:25:50.148Z,24.83
2022-08-09T08:28:25.606Z,24.78
2022-08-09T08:31:14.243Z,24.88
2022-08-09T08:33:52.482Z,24.92
2022-08-09T08:36:29.616Z,24.96
2022-08-09T08:39:00.192Z,25.01
2022-08-09T08:41:51.112Z,25.17
2022-08-09T08:44:23.246Z,25.29
2022-08-09T08:47:04.727Z,25.41
2022-08-09T08:49:48.161Z,25.44
2022-08-09T08:55:23.101Z,25.91
2022-08-09T08:57:57.586Z,26.11
2022-08-09T09:00:39.599Z,26.25
2022-08-09T09:03:23.094Z,26.31
2022-08-09T09:06:05.060Z,26.28
2022-08-09T09:08:42.487Z,26.21
2022-08-09T09:11:13.747Z,26.06
2022-08-09T09:13:58.497Z,26.00
2022-08-09T09:16:34.583Z,26.04
2022-08-09T09:22:26.797Z,26.11
2022-08-09T09:26:02.413Z,26.18
2022-08-09T09:28:05.331Z,26.29
2022-08-09T09:30:54.043Z,26.44
2022-08-09T09:33:44.715Z,26.56
2022-08-09T09:36:20.361Z,26.56
2022-08-09T09:38:58.081Z,26.45
2022-08-09T09:41:49.748Z,26.37
2022-08-09T09:44:31.461Z,26.25
2022-08-09T09:47:12.101Z,26.40
2022-08-09T09:50:14.145Z,26.50
2022-08-09T09:52:54.868Z,26.49
2022-08-09T09:55:32.321Z,26.41
2022-08-09T09:58:16.188Z,26.33
2022-08-09T10:01:00.704Z,26.60
2022-08-09T10:03:58.220Z,26.76
2022-08-09T10:06:42.776Z,26.90
2022-08-09T10:09:28.536Z,26.91
2022-08-09T10:12:32.406Z,27.00
2022-08-09T10:15:25.501Z,27.09
2022-08-09T10:18:13.409Z,27.23
2022-08-09T10:20:44.906Z,27.47
2022-08-09T10:23:21.902Z,27.59
2022-08-09T10:26:07.448Z,27.98
2022-08-09T10:28:41.396Z,28.55
2022-08-09T10:34:10.186Z,28.96
2022-08-09T10:36:58.102Z,29.13
2022-08-09T10:39:28.807Z,28.76
2022-08-09T10:41:58.137Z,28.73
2022-08-09T10:44:31.897Z,28.64
2022-08-09T10:48:12.475Z,28.53
2022-08-09T10:51:01.951Z,28.13
2022-08-09T10:54:06.266Z,27.69
2022-08-09T10:56:42.153Z,27.69
2022-08-09T10:59:31.025Z,27.71
2022-08-09T11:03:18.908Z,27.52
2022-08-09T11:05:24.980Z,27.46
2022-08-09T11:08:43.620Z,27.43
2022-08-09T11:11:59.613Z,27.37
2022-08-09T11:14:39.765Z,27.40
2022-08-09T11:17:19.243Z,27.27
2022-08-09T11:20:10.045Z,27.30
2022-08-09T11:22:40.292Z,27.34
2022-08-09T11:25:10.196Z,27.38
2022-08-09T11:28:05.538Z,27.00
2022-08-09T11:30:37.298Z,27.07
2022-08-09T11:33:19.948Z,26.89
2022-08-09T11:35:59.814Z,26.93
2022-08-09T11:38:34.932Z,27.01
2022-08-09T11:41:13.592Z,27.13
2022-08-09T11:43:52.821Z,27.14
2022-08-09T11:46:33.307Z,27.00
2022-08-09T11:49:05.206Z,27.26
2022-08-09T11:53:03.665Z,27.32
2022-08-09T11:55:51.629Z,27.28
2022-08-09T11:58:16.393Z,27.32
2022-08-09T12:00:56.517Z,27.42
2022-08-09T12:03:50.499Z,27.57
2022-08-09T12:06:26.519Z,27.78
2022-08-09T12:08:57.106Z,27.83
2022-08-09T12:11:27.988Z,28.04
2022-08-09T12:14:09.658Z,28.09
2022-08-09T12:16:42.864Z,28.05
2022-08-09T12:19:13.226Z,28.13
2022-08-09T12:21:50.463Z,27.99
2022-08-09T12:24:25.105Z,28.17
2022-08-09T12:29:10.989Z,28.40
2022-08-09T12:30:01.694Z,28.27
2022-08-09T12:32:44.899Z,28.39
2022-08-09T12:35:17.056Z,28.54
2022-08-09T12:37:51.685Z,28.72
2022-08-09T12:40:23.207Z,28.57
2022-08-09T12:42:56.158Z,28.54
2022-08-09T12:45:34.758Z,28.53
2022-08-09T12:48:27.943Z,28.43
2022-08-09T12:51:03.897Z,28.52
2022-08-09T12:53:40.891Z,28.47
2022-08-09T12:56:39.451Z,28.54
2022-08-09T12:59:14.323Z,28.64
2022-08-09T13:02:05.160Z,28.82
2022-08-09T13:04:38.916Z,28.83
2022-08-09T13:07:13.854Z,28.91
2022-08-09T13:09:43.276Z,28.82
2022-08-09T13:12:12.025Z,28.82
2022-08-09T13:14:48.862Z,28.71
2022-08-09T13:17:44.274Z,28.58
2022-08-09T13:20:18.793Z,28.53
2022-08-09T13:23:06.139Z,28.35
2022-08-09T13:25:53.367Z,28.22
2022-08-09T13:28:34.683Z,28.25
2022-08-09T13:32:12.502Z,28.38
2022-08-09T13:34:00.301Z,28.52
2022-08-09T13:36:41.051Z,28.46
2022-08-09T13:41:51.302Z,28.44
2022-08-09T13:42:12.043Z,28.42
2022-08-09T13:44:48.719Z,28.37
2022-08-09T13:47:33.879Z,28.18
2022-08-09T13:50:18.028Z,28.09
2022-08-09T13:52:58.922Z,28.04
2022-08-09T13:55:30.412Z,27.84
2022-08-09T13:57:59.307Z,27.91
2022-08-09T14:00:30.747Z,27.95
2022-08-09T14:03:03.155Z,28.06
2022-08-09T14:05:56.667Z,28.19
2022-08-09T14:08:29.813Z,28.20
2022-08-09T14:10:59.553Z,28.19
2022-08-09T14:14:16.511Z,28.14
2022-08-09T14:16:28.284Z,27.96
2022-08-09T14:18:59.568Z,27.92
2022-08-09T14:21:31.960Z,27.69
2022-08-09T14:24:10.209Z,27.59
2022-08-09T14:26:51.141Z,27.42
2022-08-09T14:30:18.541Z,27.38
2022-08-09T14:32:12.973Z,27.18
2022-08-09T14:34:47.533Z,27.71
2022-08-09T14:37:28.568Z,28.29
2022-08-09T14:40:13.235Z,28.48
2022-08-09T14:42:42.036Z,28.66
2022-08-09T14:46:40.083Z,28.61
2022-08-09T14:48:02.298Z,28.27
2022-08-09T14:50:35.204Z,28.10
2022-08-09T14:53:12.209Z,27.64
2022-08-09T14:55:49.963Z,27.59
2022-08-09T14:58:19.230Z,27.50
2022-08-09T15:00:52.021Z,27.04
2022-08-09T15:03:23.690Z,26.45
2022-08-09T15:05:59.718Z,25.93
2022-08-09T15:08:30.703Z,25.45
2022-08-09T15:11:00.407Z,25.36
2022-08-09T15:13:48.064Z,25.16
2022-08-09T15:16:20.418Z,24.86
2022-08-09T15:18:49.270Z,24.77
2022-08-09T15:21:56.829Z,24.48
2022-08-09T15:24:11.480Z,23.96
2022-08-09T15:26:45.320Z,23.43
2022-08-09T15:30:56.021Z,22.97
2022-08-09T15:32:05.951Z,22.69
2022-08-09T15:34:55.503Z,22.71
2022-08-09T15:37:57.169Z,22.73
2022-08-09T15:40:31.777Z,22.58
2022-08-09T15:43:02.609Z,22.51
2022-08-09T15:46:07.463Z,22.58
2022-08-09T15:48:29.062Z,22.64
2022-08-09T15:51:30.149Z,22.75
2022-08-09T15:54:07.082Z,22.66
2022-08-09T15:56:48.027Z,22.53
2022-08-09T15:59:18.053Z,22.42
2022-08-09T16:01:46.497Z,22.50
2022-08-09T16:04:17.005Z,22.47
2022-08-09T16:06:52.767Z,22.45
2022-08-09T16:09:32.397Z,22.37
2022-08-09T16:12:13.665Z,22.37
2022-08-09T16:14:43.946Z,22.36
2022-08-09T16:17:17.172Z,22.23
2022-08-09T16:19:49.643Z,22.26
2022-08-09T16:22:34.203Z,22.25
2022-08-09T16:25:08.296Z,22.28
2022-08-09T16:27:37.314Z,22.20
2022-08-09T16:30:08.758Z,22.15
2022-08-09T16:33:03.964Z,22.10
2022-08-09T16:35:57.606Z,22.00
2022-08-09T16:38:22.611Z,21.88
2022-08-09T16:40:50.806Z,21.84
2022-08-09T16:43:20.813Z,21.61
2022-08-09T16:45:53.622Z,21.56
2022-08-09T16:48:50.241Z,21.35
2022-08-09T16:51:13.867Z,21.37
2022-08-09T16:54:08.946Z,21.22
2022-08-09T16:56:33.920Z,20.83
2022-08-09T16:59:06.787Z,20.06
2022-08-09T17:01:39.419Z,19.62
2022-08-09T17:04:26.114Z,19.20
2022-08-09T17:08:43.817Z,18.69
2022-08-09T17:09:47.754Z,18.27
2022-08-09T17:12:17.046Z,18.09
2022-08-09T17:14:49.108Z,18.01
2022-08-09T17:17:27.181Z,17.96
2022-08-09T17:20:28.645Z,17.98
2022-08-09T17:22:50.198Z,17.97
2022-08-09T17:25:22.034Z,17.91
2022-08-09T17:27:54.511Z,17.77
2022-08-09T17:30:28.928Z,17.76
2022-08-09T17:33:05.515Z,17.73
2022-08-09T17:35:50.614Z,17.80
2022-08-09T17:38:32.522Z,17.76
2022-08-09T17:41:05.292Z,17.76
2022-08-09T17:43:35.987Z,17.82
2022-08-09T17:46:09.481Z,17.82
2022-08-09T17:48:51.984Z,17.80
2022-08-09T17:51:22.449Z,17.77
2022-08-09T17:53:55.268Z,17.73
2022-08-09T17:56:28.874Z,17.76
2022-08-09T17:59:03.353Z,17.85
2022-08-09T18:02:03.282Z,17.85
2022-08-09T18:04:27.923Z,17.86
2022-08-09T18:06:56.563Z,17.82
2022-08-09T18:09:40.078Z,17.82
2022-08-09T18:12:19.727Z,17.86
